Time;durP1;ratioP1;P1;durP2;ratioP2;P2;SDS_P1;SDS_P2;PMS_P1;PMS_P2;Temp;Humidity;BMP_temperature;BMP_pressure;BME280_temperature;BME280_humidity;BME280_pressure;Samples;Min_cycle;Max_cycle;Signal;HPM_P1;HPM_P2
2022/09/07 00:00:48;;;;;;;4.10;3.47;;;;;;;18.29;58.33;101131.63;4945788;28;97123;-47
2022/09/07 00:03:14;;;;;;;4.90;3.67;;;;;;;18.24;58.36;101127.66;4944106;28;97443;-49
2022/09/07 00:05:44;;;;;;;3.90;3.60;;;;;;;18.22;58.55;101135.81;4941073;28;97468;-46
2022/09/07 00:08:10;;;;;;;3.60;3.30;;;;;;;18.20;58.54;101132.03;4927086;28;97498;-46
2022/09/07 00:10:36;;;;;;;4.40;4.00;;;;;;;18.20;58.34;101132.81;4926676;28;97361;-47
2022/09/07 00:13:02;;;;;;;3.97;3.77;;;;;;;18.21;58.45;101142.69;4942049;28;97436;-49
2022/09/07 00:15:27;;;;;;;5.10;3.73;;;;;;;18.23;58.68;101140.09;4941854;28;100082;-46
2022/09/07 00:17:52;;;;;;;3.73;3.50;;;;;;;18.22;58.42;101135.81;4940735;28;97643;-46
2022/09/07 00:20:18;;;;;;;4.03;3.80;;;;;;;18.18;58.47;101137.41;4934616;28;97512;-47
2022/09/07 00:22:44;;;;;;;7.13;4.27;;;;;;;18.18;58.59;101142.97;4930806;28;96900;-47
2022/09/07 00:25:10;;;;;;;4.77;4.27;;;;;;;18.18;58.81;101140.19;4937628;28;97334;-48
2022/09/07 00:27:36;;;;;;;4.30;3.93;;;;;;;18.18;58.47;101152.09;4936540;28;97222;-47
2022/09/07 00:30:01;;;;;;;4.47;4.10;;;;;;;18.21;58.59;101153.81;4941257;28;97182;-47
2022/09/07 00:32:27;;;;;;;4.77;4.20;;;;;;;18.20;58.60;101152.28;4946020;28;98372;-47
2022/09/07 00:34:52;;;;;;;3.90;3.60;;;;;;;18.18;58.58;101160.44;4936181;28;97192;-47
2022/09/07 00:37:18;;;;;;;3.67;3.40;;;;;;;18.17;58.47;101156.16;4934155;28;97211;-47
2022/09/07 00:39:43;;;;;;;4.60;4.13;;;;;;;18.14;58.55;101159.25;4945754;28;96952;-47
2022/09/07 00:42:08;;;;;;;5.27;4.77;;;;;;;18.09;58.69;101157.31;4942550;28;96947;-47
2022/09/07 00:44:43;;;;;;;4.70;4.20;;;;;;;18.08;58.78;101144.69;4942061;28;97262;-47
2022/09/07 00:47:33;;;;;;;5.17;4.53;;;;;;;18.03;59.59;101143.50;4948223;28;97183;-48
2022/09/07 00:50:04;;;;;;;5.00;4.60;;;;;;;17.97;58.79;101135.22;4945178;28;103902;-50
2022/09/07 00:52:31;;;;;;;4.83;4.43;;;;;;;17.95;58.75;101121.06;4948075;28;97206;-46
2022/09/07 00:55:02;;;;;;;5.30;4.80;;;;;;;17.99;58.91;101129.13;4946363;28;97760;-47
2022/09/07 00:57:27;;;;;;;4.30;3.90;;;;;;;17.95;58.80;101120.34;4942328;28;97885;-47
2022/09/07 00:59:56;;;;;;;4.27;3.87;;;;;;;17.90;58.94;101124.72;4943282;28;96855;-49
2022/09/07 01:02:22;;;;;;;4.67;3.70;;;;;;;17.87;59.10;101125.03;4940204;28;96986;-52
2022/09/07 01:04:52;;;;;;;4.80;4.40;;;;;;;17.82;59.19;101117.53;4948042;28;97427;-51
2022/09/07 01:07:18;;;;;;;4.00;3.70;;;;;;;17.79;59.21;101107.44;4942767;28;97574;-47
2022/09/07 01:09:46;;;;;;;4.43;4.03;;;;;;;17.81;59.19;101111.22;4945216;28;97184;-49
2022/09/07 01:12:12;;;;;;;5.37;4.30;;;;;;;17.80;59.18;101115.25;4938074;28;97004;-46
2022/09/07 01:14:44;;;;;;;5.53;4.73;;;;;;;17.80;59.42;101097.84;4940907;28;96720;-47
2022/09/07 01:17:14;;;;;;;3.90;3.60;;;;;;;17.81;59.48;101105.63;4933981;28;97173;-48
2022/09/07 01:19:54;;;;;;;5.90;3.50;;;;;;;17.83;59.62;101117.00;4938754;28;96785;-48
2022/09/07 01:22:59;;;;;;;4.57;4.10;;;;;;;17.84;60.07;101112.19;4938563;28;97258;-47
2022/09/07 01:25:34;;;;;;;4.53;4.23;;;;;;;17.85;59.13;101113.66;4943849;28;101851;-47
2022/09/07 01:28:15;;;;;;;4.07;3.77;;;;;;;17.88;59.22;101116.16;4935159;28;100269;-47
2022/09/07 01:30:54;;;;;;;5.20;4.70;;;;;;;17.88;59.41;101105.03;4952682;28;97195;-47
2022/09/07 01:33:41;;;;;;;3.73;3.40;;;;;;;17.91;59.83;101098.38;4953746;28;96742;-47
2022/09/07 01:36:21;;;;;;;4.57;4.07;;;;;;;17.91;59.22;101106.72;4942639;28;103318;-47
2022/09/07 01:38:53;;;;;;;5.27;4.87;;;;;;;17.94;59.29;101110.47;4944561;28;100394;-47
2022/09/07 01:41:29;;;;;;;9.60;4.20;;;;;;;17.95;59.30;101109.94;4928506;28;96633;-48
2022/09/07 01:44:06;;;;;;;6.40;4.17;;;;;;;17.98;59.42;101113.69;4940918;28;96840;-47
2022/09/07 01:46:49;;;;;;;4.73;4.33;;;;;;;18.01;59.63;101129.34;4924431;28;98564;-48
2022/09/07 01:49:22;;;;;;;4.10;3.80;;;;;;;18.04;59.50;101122.72;4940729;28;102212;-47
2022/09/07 01:51:55;;;;;;;4.80;4.50;;;;;;;18.03;59.40;101106.53;4933376;28;97054;-47
2022/09/07 01:54:31;;;;;;;5.20;4.70;;;;;;;18.01;59.81;101107.06;4915335;28;97972;-48
2022/09/07 01:57:02;;;;;;;3.87;3.57;;;;;;;18.01;59.42;101101.50;4948720;28;100432;-47
2022/09/07 01:59:37;;;;;;;4.37;4.07;;;;;;;18.03;59.78;101096.16;4946049;28;102133;-47
2022/09/07 02:02:08;;;;;;;5.47;4.97;;;;;;;18.05;59.53;101092.81;4940152;28;96856;-47
2022/09/07 02:04:39;;;;;;;4.40;4.00;;;;;;;18.04;59.44;101097.66;4942371;28;97676;-47
2022/09/07 02:07:22;;;;;;;5.00;4.60;;;;;;;18.04;60.46;101085.78;4931282;28;103313;-47
2022/09/07 02:09:59;;;;;;;5.00;4.60;;;;;;;17.99;60.09;101090.16;4929203;28;100129;-47
2022/09/07 02:12:49;;;;;;;4.17;3.80;;;;;;;17.98;60.73;101086.63;4932727;28;97337;-47
2022/09/07 02:15:35;;;;;;;4.10;3.77;;;;;;;18.00;60.25;101090.91;4948159;28;96918;-49
2022/09/07 02:18:06;;;;;;;6.40;4.67;;;;;;;18.04;59.54;101089.31;4944913;28;96972;-48
2022/09/07 02:20:36;;;;;;;4.50;4.20;;;;;;;18.04;59.64;101083.75;4946570;28;97221;-47
2022/09/07 02:23:09;;;;;;;4.23;3.93;;;;;;;18.05;59.78;101079.66;4942932;28;96915;-48
2022/09/07 02:25:40;;;;;;;4.40;4.10;;;;;;;18.05;59.79;101073.34;4931036;28;97182;-48
2022/09/07 02:28:13;;;;;;;4.57;4.17;;;;;;;18.09;59.81;101084.91;4934828;28;98693;-46
2022/09/07 02:30:39;;;;;;;4.07;3.77;;;;;;;18.10;59.75;101067.69;4929480;28;97458;-50
2022/09/07 02:33:05;;;;;;;5.20;4.70;;;;;;;18.13;59.74;101068.66;4948829;28;97526;-47
2022/09/07 02:35:30;;;;;;;6.10;4.23;;;;;;;18.12;59.65;101059.53;4947761;28;97135;-46
2022/09/07 02:38:00;;;;;;;5.03;4.43;;;;;;;18.15;59.73;101066.81;4946694;28;98174;-49
2022/09/07 02:40:25;;;;;;;5.07;4.57;;;;;;;18.16;59.84;101067.56;4943817;28;97158;-48
2022/09/07 02:42:51;;;;;;;4.40;4.10;;;;;;;18.19;59.81;101066.50;4935510;28;97041;-47
2022/09/07 02:45:17;;;;;;;10.33;4.27;;;;;;;18.22;59.88;101059.84;4949909;28;96890;-47
2022/09/07 02:48:08;;;;;;;4.43;4.10;;;;;;;18.24;60.07;101063.59;4938310;28;97320;-49
2022/09/07 02:50:43;;;;;;;4.70;4.30;;;;;;;18.26;59.68;101054.72;4943767;28;101403;-47
2022/09/07 02:53:46;;;;;;;4.40;4.10;;;;;;;18.29;60.33;101053.63;4946725;28;96871;-47
2022/09/07 02:56:20;;;;;;;4.93;4.47;;;;;;;18.30;60.34;101050.34;4928990;28;97337;-46
2022/09/07 02:58:53;;;;;;;4.50;4.20;;;;;;;18.34;60.35;101059.13;4943217;28;103895;-46
2022/09/07 03:02:07;;;;;;;4.67;4.27;;;;;;;18.37;60.52;101048.94;4933241;28;97272;-46
2022/09/07 03:04:59;;;;;;;5.30;4.87;;;;;;;18.35;60.36;101043.88;4967104;28;97314;-47
2022/09/07 03:07:31;;;;;;;4.63;4.30;;;;;;;18.37;60.01;101049.66;4943522;28;97004;-46
2022/09/07 03:09:59;;;;;;;5.33;4.60;;;;;;;18.41;59.82;101038.22;4935188;28;97487;-47
2022/09/07 03:12:40;;;;;;;4.70;4.30;;;;;;;18.43;60.08;101035.63;4946014;28;97424;-46
2022/09/07 03:15:09;;;;;;;4.63;4.27;;;;;;;18.44;59.74;101029.53;4947194;28;96743;-46
2022/09/07 03:17:35;;;;;;;5.23;4.87;;;;;;;18.42;59.83;101014.63;4942485;28;97160;-47
2022/09/07 03:20:00;;;;;;;5.57;5.07;;;;;;;18.41;59.95;101011.06;4944128;28;97303;-46
2022/09/07 03:22:27;;;;;;;5.07;4.67;;;;;;;18.44;59.86;101020.41;4943837;28;98259;-49
2022/09/07 03:24:52;;;;;;;4.00;3.70;;;;;;;18.46;60.14;101023.44;4932151;28;96830;-46
2022/09/07 03:27:17;;;;;;;5.37;4.97;;;;;;;18.47;60.07;101041.66;4947413;28;97180;-47
2022/09/07 03:29:43;;;;;;;5.93;5.17;;;;;;;18.52;60.27;101057.53;4929828;28;98402;-47
2022/09/07 03:32:08;;;;;;;5.37;4.97;;;;;;;18.59;60.07;101082.69;4939357;28;98329;-47
2022/09/07 03:34:35;;;;;;;8.50;5.80;;;;;;;18.64;60.01;101122.88;4942679;28;96883;-47
2022/09/07 03:37:00;;;;;;;5.47;4.97;;;;;;;18.69;59.93;101141.53;4941444;28;96836;-46
2022/09/07 03:39:27;;;;;;;6.23;4.90;;;;;;;18.74;59.85;101114.84;4943570;28;102752;-47
2022/09/07 03:41:52;;;;;;;5.17;4.77;;;;;;;18.78;60.01;101112.47;4927207;28;97309;-47
2022/09/07 03:44:17;;;;;;;4.83;4.43;;;;;;;18.81;59.85;101098.19;4934297;28;97390;-47
2022/09/07 03:46:43;;;;;;;4.53;4.23;;;;;;;18.86;60.03;101096.56;4946046;28;97285;-47
2022/09/07 03:49:08;;;;;;;5.50;5.00;;;;;;;18.88;59.91;101097.53;4929053;28;98753;-47
2022/09/07 03:51:33;;;;;;;4.90;4.50;;;;;;;18.92;60.05;101094.41;4931276;28;97104;-47
2022/09/07 03:53:59;;;;;;;5.47;5.07;;;;;;;18.94;59.86;101100.97;4935404;28;97757;-47
2022/09/07 03:56:25;;;;;;;6.30;4.80;;;;;;;18.97;59.68;101101.91;4943748;28;97369;-48
2022/09/07 03:58:52;;;;;;;4.90;4.47;;;;;;;19.00;59.95;101115.53;4945812;28;97190;-47
2022/09/07 04:01:22;;;;;;;5.00;4.57;;;;;;;19.02;60.01;101129.72;4935267;28;97479;-47
2022/09/07 04:03:47;;;;;;;5.00;4.60;;;;;;;19.04;59.87;101140.31;4923940;28;97118;-47
2022/09/07 04:06:14;;;;;;;7.17;5.10;;;;;;;19.04;59.82;101141.06;4936058;28;97059;-47
2022/09/07 04:08:41;;;;;;;7.93;5.00;;;;;;;19.02;59.94;101124.13;4922024;28;97629;-48
2022/09/07 04:11:09;;;;;;;4.60;4.30;;;;;;;18.98;60.15;101118.09;4935273;28;97421;-48
2022/09/07 04:13:35;;;;;;;5.10;4.70;;;;;;;18.89;60.28;101115.03;4944112;28;96786;-47
2022/09/07 04:16:21;;;;;;;5.03;4.67;;;;;;;18.87;61.11;101123.91;4946791;28;97115;-47
2022/09/07 04:18:48;;;;;;;6.63;5.27;;;;;;;18.88;60.82;101113.53;4944844;28;100782;-48
2022/09/07 04:21:14;;;;;;;6.07;5.47;;;;;;;18.82;60.83;101094.13;4934346;28;97441;-48
2022/09/07 04:23:40;;;;;;;5.40;4.90;;;;;;;18.79;60.95;101094.44;4944661;28;97340;-48
2022/09/07 04:26:12;;;;;;;6.27;5.77;;;;;;;18.73;62.08;101094.56;4930887;28;97306;-47
2022/09/07 04:28:37;;;;;;;6.03;5.60;;;;;;;18.67;61.56;101091.88;4939980;28;96625;-47
2022/09/07 04:31:03;;;;;;;4.73;4.43;;;;;;;18.67;61.57;101105.09;4943247;28;106217;-48
2022/09/07 04:33:32;;;;;;;5.77;5.27;;;;;;;18.68;61.77;101112.16;4946088;28;103573;-48
2022/09/07 04:36:01;;;;;;;6.27;5.53;;;;;;;18.67;61.99;101116.97;4944563;28;97020;-52
2022/09/07 04:38:27;;;;;;;6.10;5.60;;;;;;;18.71;61.65;101105.50;4945486;28;97345;-48
2022/09/07 04:41:11;;;;;;;5.10;4.70;;;;;;;18.73;62.15;101108.50;4949198;28;96780;-48
2022/09/07 04:43:38;;;;;;;5.10;4.60;;;;;;;18.74;61.67;101128.78;4943107;28;96958;-49
2022/09/07 04:46:06;;;;;;;6.00;5.50;;;;;;;18.76;61.75;101129.00;4941935;28;96806;-48
2022/09/07 04:48:31;;;;;;;5.97;5.37;;;;;;;18.77;61.60;101147.97;4941117;28;100467;-49
2022/09/07 04:51:09;;;;;;;6.77;6.17;;;;;;;18.81;62.41;101150.41;4940972;28;96971;-46
2022/09/07 04:53:36;;;;;;;6.63;5.83;;;;;;;18.82;61.85;101146.34;4938690;28;97301;-47
2022/09/07 04:56:03;;;;;;;6.20;5.60;;;;;;;18.77;62.15;101136.81;4933393;28;99853;-48
2022/09/07 04:58:29;;;;;;;6.50;6.00;;;;;;;18.70;62.12;101137.44;4934270;28;97316;-48
2022/09/07 05:00:54;;;;;;;6.57;6.07;;;;;;;18.70;62.15;101141.00;4934941;28;97457;-47
2022/09/07 05:03:19;;;;;;;6.37;5.83;;;;;;;18.72;62.17;101142.50;4935163;28;97394;-47
2022/09/07 05:05:45;;;;;;;7.23;6.57;;;;;;;18.75;62.25;101144.19;4938847;28;97151;-46
2022/09/07 05:08:11;;;;;;;7.43;6.10;;;;;;;18.74;62.23;101151.81;4944188;28;97258;-47
2022/09/07 05:10:37;;;;;;;8.80;6.97;;;;;;;18.74;62.31;101137.88;4933555;28;104540;-46
2022/09/07 05:13:02;;;;;;;7.30;5.90;;;;;;;18.76;62.56;101132.53;4939570;28;97376;-49
2022/09/07 05:15:29;;;;;;;7.63;7.00;;;;;;;18.72;62.43;101123.72;4934555;28;96747;-45
2022/09/07 05:17:55;;;;;;;6.93;6.33;;;;;;;18.68;62.38;101124.06;4938054;28;97511;-45
2022/09/07 05:20:20;;;;;;;7.80;6.37;;;;;;;18.66;62.67;101114.72;4935808;28;97216;-46
2022/09/07 05:22:46;;;;;;;7.07;6.37;;;;;;;18.69;62.58;101114.41;4929765;28;97167;-48
2022/09/07 05:25:12;;;;;;;7.63;6.93;;;;;;;18.68;62.78;101107.34;4947407;28;97368;-48
2022/09/07 05:27:37;;;;;;;7.37;5.83;;;;;;;18.71;62.83;101116.66;4941025;28;97362;-48
2022/09/07 05:30:03;;;;;;;7.90;7.20;;;;;;;18.74;62.73;101115.56;4929536;28;97160;-47
2022/09/07 05:32:28;;;;;;;7.00;6.40;;;;;;;18.78;62.70;101132.75;4935233;28;97303;-48
2022/09/07 05:34:54;;;;;;;9.00;8.10;;;;;;;18.82;62.70;101129.63;4929299;28;97196;-48
2022/09/07 05:37:19;;;;;;;7.83;7.13;;;;;;;18.83;62.84;101131.84;4925449;28;97713;-48
2022/09/07 05:39:44;;;;;;;7.40;6.80;;;;;;;18.86;62.59;101130.78;4936550;28;97472;-47
2022/09/07 05:42:10;;;;;;;8.63;7.30;;;;;;;18.88;62.78;101128.22;4929776;28;97284;-49
2022/09/07 05:44:35;;;;;;;8.00;7.30;;;;;;;18.89;62.83;101138.09;4936227;28;97355;-47
2022/09/07 05:47:01;;;;;;;8.33;7.63;;;;;;;18.91;63.03;101138.31;4934734;28;97591;-47
2022/09/07 05:49:26;;;;;;;8.10;7.00;;;;;;;18.91;62.91;101141.09;4944765;28;98416;-49
2022/09/07 05:51:51;;;;;;;8.77;7.97;;;;;;;18.93;63.00;101155.25;4941673;28;96783;-48
2022/09/07 05:54:17;;;;;;;8.33;7.53;;;;;;;18.95;62.90;101154.69;4938648;28;97025;-48
2022/09/07 05:56:42;;;;;;;10.80;7.40;;;;;;;18.95;63.03;101140.75;4943853;28;97390;-48
2022/09/07 05:59:08;;;;;;;7.80;6.70;;;;;;;18.90;63.02;101134.00;4927278;28;97204;-48
2022/09/07 06:01:34;;;;;;;7.83;7.13;;;;;;;18.91;63.05;101132.72;4930954;28;96896;-48
2022/09/07 06:04:00;;;;;;;7.93;7.23;;;;;;;18.90;63.20;101122.09;4926208;28;96775;-51
2022/09/07 06:06:25;;;;;;;6.93;6.40;;;;;;;18.86;63.29;101119.66;4923779;28;96876;-50
2022/09/07 06:08:53;;;;;;;7.77;7.13;;;;;;;18.84;63.53;101119.44;4931097;28;98297;-48
2022/09/07 06:11:23;;;;;;;9.60;7.43;;;;;;;18.82;63.96;101107.31;4933376;28;97016;-47
2022/09/07 06:13:49;;;;;;;9.43;7.20;;;;;;;18.77;63.71;101100.56;4935913;28;98765;-47
2022/09/07 06:16:15;;;;;;;8.50;7.80;;;;;;;18.72;63.87;101084.69;4931493;28;96959;-52
2022/09/07 06:18:43;;;;;;;9.50;8.57;;;;;;;18.68;63.99;101073.88;4927152;28;97979;-46
2022/09/07 06:21:11;;;;;;;8.10;7.30;;;;;;;18.64;64.04;101050.41;4932099;28;97432;-46
2022/09/07 06:23:38;;;;;;;9.13;8.23;;;;;;;18.65;64.17;101049.13;4926991;28;96853;-47
2022/09/07 06:26:04;;;;;;;9.43;8.17;;;;;;;18.66;64.27;101028.31;4921795;28;97488;-48
2022/09/07 06:28:35;;;;;;;8.30;7.60;;;;;;;18.66;64.14;101017.19;4921108;28;97387;-47
2022/09/07 06:31:02;;;;;;;8.67;7.93;;;;;;;18.67;64.28;101007.53;4929408;28;97077;-47
2022/09/07 06:33:27;;;;;;;9.80;8.83;;;;;;;18.67;64.31;100991.53;4937589;28;97017;-48
2022/09/07 06:36:09;;;;;;;9.77;8.77;;;;;;;18.69;65.25;100993.81;4941269;28;97696;-48
2022/09/07 06:38:36;;;;;;;8.73;8.03;;;;;;;18.73;64.08;100979.53;4929451;28;97426;-47
2022/09/07 06:41:09;;;;;;;9.87;8.37;;;;;;;18.76;64.22;100978.47;4926292;28;98264;-47
2022/09/07 06:43:35;;;;;;;10.30;9.40;;;;;;;18.73;64.30;100963.56;4937291;28;96826;-48
2022/09/07 06:46:01;;;;;;;10.03;9.00;;;;;;;18.75;64.47;100960.97;4942449;28;97371;-46
2022/09/07 06:48:27;;;;;;;9.43;8.63;;;;;;;18.77;64.23;100955.59;4944721;28;98310;-51
2022/09/07 06:50:59;;;;;;;8.97;8.07;;;;;;;18.81;64.66;100977.56;4939493;28;97151;-49
2022/09/07 06:53:25;;;;;;;9.00;8.17;;;;;;;18.89;64.45;100990.31;4942479;28;97031;-50
2022/09/07 06:55:51;;;;;;;9.00;8.20;;;;;;;18.96;64.47;100984.03;4930394;28;96907;-48
2022/09/07 06:58:16;;;;;;;9.13;8.33;;;;;;;19.00;64.20;100987.25;4920590;28;97103;-49
2022/09/07 07:00:42;;;;;;;9.23;8.43;;;;;;;19.01;64.28;100985.22;4933546;28;96877;-48
2022/09/07 07:03:07;;;;;;;8.70;8.00;;;;;;;19.04;64.51;100981.34;4943571;28;97105;-47
2022/09/07 07:05:32;;;;;;;9.30;8.50;;;;;;;19.10;64.49;100985.50;4935132;28;98577;-46
2022/09/07 07:07:58;;;;;;;9.67;8.67;;;;;;;19.17;64.47;100975.69;4941527;28;97021;-46
2022/09/07 07:10:24;;;;;;;7.70;7.10;;;;;;;19.24;64.38;100969.44;4950006;28;96868;-49
2022/09/07 07:12:51;;;;;;;10.60;8.50;;;;;;;19.28;64.65;100978.97;4928637;28;97378;-45
2022/09/07 07:15:16;;;;;;;8.17;7.53;;;;;;;19.34;64.58;100965.66;4926361;28;97184;-47
2022/09/07 07:17:41;;;;;;;8.97;8.27;;;;;;;19.43;64.64;100970.00;4931986;28;97176;-46
2022/09/07 07:20:07;;;;;;;8.67;7.87;;;;;;;19.51;64.57;100975.63;4928691;28;97208;-48
2022/09/07 07:22:32;;;;;;;9.00;8.27;;;;;;;19.54;64.71;100980.13;4934270;28;97132;-46
2022/09/07 07:24:58;;;;;;;8.40;7.53;;;;;;;19.63;64.44;100994.34;4940389;28;97446;-51
2022/09/07 07:27:23;;;;;;;9.03;8.10;;;;;;;19.74;64.34;101008.00;4936582;28;97666;-45
2022/09/07 07:29:48;;;;;;;8.10;7.40;;;;;;;19.84;64.36;101027.78;4931362;28;97329;-46
2022/09/07 07:32:14;;;;;;;8.13;7.43;;;;;;;19.94;64.22;101040.72;4948604;28;97155;-46
2022/09/07 07:34:39;;;;;;;9.33;8.43;;;;;;;20.04;64.12;101033.34;4928290;28;98245;-47
2022/09/07 07:37:05;;;;;;;8.70;8.00;;;;;;;20.15;64.33;101044.22;4939602;28;98418;-48
2022/09/07 07:39:30;;;;;;;9.00;8.20;;;;;;;20.24;64.18;101061.78;4943298;28;97553;-48
2022/09/07 07:41:56;;;;;;;8.10;7.40;;;;;;;20.32;64.07;101063.34;4941551;28;97486;-46
2022/09/07 07:44:21;;;;;;;8.97;8.17;;;;;;;20.38;64.01;101077.91;4928681;28;98104;-47
2022/09/07 07:46:50;;;;;;;9.80;9.00;;;;;;;20.45;64.14;101085.56;4943799;28;97220;-51
2022/09/07 07:49:16;;;;;;;9.70;7.60;;;;;;;20.53;64.07;101080.78;4941708;28;97017;-49
2022/09/07 07:51:41;;;;;;;9.70;8.90;;;;;;;20.57;64.13;101070.00;4940282;28;98585;-49
2022/09/07 07:54:07;;;;;;;9.77;8.87;;;;;;;20.66;64.19;101089.03;4940001;28;98509;-46
2022/09/07 07:56:32;;;;;;;8.50;7.70;;;;;;;20.72;64.21;101089.63;4946544;28;97204;-49
2022/09/07 07:58:57;;;;;;;9.10;8.40;;;;;;;20.76;64.07;101095.63;4933822;28;97194;-45
2022/09/07 08:01:23;;;;;;;8.23;7.53;;;;;;;20.81;64.20;101111.50;4929701;28;97263;-47
2022/09/07 08:03:49;;;;;;;9.10;8.40;;;;;;;20.89;64.08;101111.50;4941987;28;97573;-50
2022/09/07 08:06:17;;;;;;;9.53;8.60;;;;;;;20.98;64.18;101113.03;4947754;28;97134;-47
2022/09/07 08:08:44;;;;;;;9.67;8.87;;;;;;;21.04;63.94;101113.63;4931194;28;96894;-47
2022/09/07 08:11:19;;;;;;;8.63;7.80;;;;;;;21.11;64.67;101101.72;4945864;28;96918;-48
2022/09/07 08:13:48;;;;;;;8.77;8.07;;;;;;;21.17;64.15;101105.84;4927551;28;97446;-47
2022/09/07 08:16:14;;;;;;;8.90;8.10;;;;;;;21.21;64.08;101108.31;4934474;28;98566;-47
2022/09/07 08:18:40;;;;;;;9.53;8.67;;;;;;;21.25;64.05;101097.50;4940522;28;96640;-47
2022/09/07 08:21:09;;;;;;;8.33;7.53;;;;;;;21.28;63.93;101110.34;4946943;28;97554;-48
2022/09/07 08:23:34;;;;;;;8.73;7.93;;;;;;;21.27;63.90;101118.03;4945056;28;96904;-47
2022/09/07 08:26:00;;;;;;;9.90;8.97;;;;;;;21.28;64.19;101119.50;4943086;28;98417;-49
2022/09/07 08:28:27;;;;;;;9.47;8.67;;;;;;;21.35;64.22;101124.38;4944942;28;103061;-50
2022/09/07 08:30:54;;;;;;;9.77;8.97;;;;;;;21.41;64.11;101122.16;4944526;28;97087;-47
2022/09/07 08:33:19;;;;;;;9.47;8.67;;;;;;;21.46;64.10;101117.69;4942064;28;97110;-46
2022/09/07 08:35:59;;;;;;;9.60;8.60;;;;;;;21.52;64.64;101126.63;4934887;28;96758;-49
2022/09/07 08:38:25;;;;;;;8.73;7.93;;;;;;;21.57;64.07;101126.47;4939699;28;96843;-49
2022/09/07 08:40:51;;;;;;;9.03;8.20;;;;;;;21.64;64.13;101119.41;4940192;28;97200;-49
2022/09/07 08:43:28;;;;;;;10.27;9.27;;;;;;;21.69;64.54;101126.84;4945911;28;96895;-46
2022/09/07 08:46:00;;;;;;;10.33;9.33;;;;;;;21.77;64.19;101130.41;4940365;28;97432;-51
2022/09/07 08:48:32;;;;;;;8.87;8.07;;;;;;;21.88;64.08;101127.28;4936072;28;97238;-48
2022/09/07 08:51:17;;;;;;;9.53;8.63;;;;;;;21.98;64.43;101122.59;4941708;28;97139;-48
2022/09/07 08:53:45;;;;;;;9.43;8.53;;;;;;;21.99;63.55;101129.72;4940759;28;101945;-48
2022/09/07 08:56:32;;;;;;;9.07;8.27;;;;;;;21.95;64.27;101129.31;4938446;28;102709;-48
2022/09/07 08:59:00;;;;;;;8.63;7.93;;;;;;;21.99;63.83;101124.09;4944523;28;97296;-48
2022/09/07 09:01:40;;;;;;;9.00;8.20;;;;;;;22.09;64.52;101127.81;4942151;28;97104;-48
2022/09/07 09:04:13;;;;;;;8.87;8.00;;;;;;;22.18;64.21;101120.91;4941536;28;98996;-49
2022/09/07 09:06:42;;;;;;;9.20;8.30;;;;;;;22.29;63.87;101131.72;4927761;28;97279;-48
2022/09/07 09:09:19;;;;;;;8.80;8.10;;;;;;;22.45;64.10;101121.22;4925585;28;96714;-49
2022/09/07 09:12:19;;;;;;;8.87;7.97;;;;;;;22.52;64.29;101112.06;4939497;28;96775;-46
2022/09/07 09:15:14;;;;;;;9.13;8.30;;;;;;;22.58;64.15;101107.00;4941650;28;101134;-48
2022/09/07 09:17:45;;;;;;;9.63;8.83;;;;;;;22.64;63.93;101113.91;4933446;28;101447;-48
2022/09/07 09:20:29;;;;;;;8.67;7.97;;;;;;;22.77;64.17;101124.91;4923460;28;101100;-48
2022/09/07 09:23:01;;;;;;;8.00;7.30;;;;;;;22.86;63.67;101115.16;4932462;28;97229;-49
2022/09/07 09:25:32;;;;;;;7.73;7.03;;;;;;;22.99;63.50;101120.53;4931887;28;99302;-49
2022/09/07 09:27:58;;;;;;;7.90;7.20;;;;;;;23.09;63.41;101116.53;4936476;28;98455;-49
2022/09/07 09:30:23;;;;;;;7.53;6.83;;;;;;;23.17;63.15;101108.09;4943679;28;97083;-48
2022/09/07 09:32:51;;;;;;;8.33;7.67;;;;;;;23.23;63.47;101097.38;4945492;28;97201;-51
2022/09/07 09:35:37;;;;;;;10.53;7.13;;;;;;;23.29;63.32;101102.75;4943400;28;98487;-48
2022/09/07 09:38:03;;;;;;;9.90;7.23;;;;;;;23.32;63.00;101101.63;4923639;28;102020;-49
2022/09/07 09:40:36;;;;;;;7.47;6.83;;;;;;;23.37;62.98;101087.38;4926963;28;96995;-48
2022/09/07 09:43:15;;;;;;;7.77;7.07;;;;;;;23.41;62.94;101098.22;4927577;28;97125;-48
2022/09/07 09:45:45;;;;;;;8.40;7.70;;;;;;;23.49;62.68;101090.50;4948530;28;97586;-49
2022/09/07 09:48:19;;;;;;;7.60;7.00;;;;;;;23.58;62.56;101081.44;4936348;28;97304;-47
2022/09/07 09:50:49;;;;;;;7.90;7.10;;;;;;;23.65;62.36;101091.88;4936825;28;97414;-49
2022/09/07 09:53:28;;;;;;;7.33;6.70;;;;;;;23.73;62.35;101087.69;4932355;28;97286;-48
2022/09/07 09:55:54;;;;;;;6.10;5.63;;;;;;;23.77;62.23;101082.41;4927890;28;97596;-48
2022/09/07 09:58:34;;;;;;;7.23;6.53;;;;;;;23.81;62.37;101107.28;4943552;28;98826;-48
2022/09/07 10:01:19;;;;;;;7.03;6.43;;;;;;;23.81;61.98;101084.78;4930828;28;96985;-48
2022/09/07 10:03:45;;;;;;;6.27;5.77;;;;;;;23.88;62.12;101094.47;4939945;28;97028;-49
2022/09/07 10:06:14;;;;;;;7.03;6.43;;;;;;;23.95;61.98;101099.31;4936559;28;98031;-49
2022/09/07 10:08:55;;;;;;;6.63;6.10;;;;;;;23.90;61.78;101098.22;4936413;28;97421;-47
2022/09/07 10:11:40;;;;;;;7.23;6.63;;;;;;;23.93;62.44;101099.88;4929867;28;96856;-48
2022/09/07 10:14:34;;;;;;;6.30;5.90;;;;;;;24.05;61.51;101094.56;4937835;28;97380;-48
2022/09/07 10:17:08;;;;;;;8.20;6.70;;;;;;;24.15;61.49;101086.97;4948302;28;101624;-48
2022/09/07 10:19:36;;;;;;;6.23;5.73;;;;;;;24.26;61.45;101092.09;4933139;28;99970;-48
2022/09/07 10:22:39;;;;;;;6.27;5.77;;;;;;;24.27;61.68;101082.31;4947286;28;98289;-47
2022/09/07 10:25:30;;;;;;;6.90;4.83;;;;;;;24.28;61.72;101081.00;4938956;28;97052;-48
2022/09/07 10:28:23;;;;;;;7.77;5.20;;;;;;;24.39;60.91;101081.28;4938973;28;101431;-47
2022/09/07 10:31:29;;;;;;;5.37;4.97;;;;;;;24.47;60.54;101078.38;4944187;28;100365;-48
2022/09/07 10:34:13;;;;;;;6.07;5.67;;;;;;;24.46;60.62;101079.69;4941514;28;96791;-48
2022/09/07 10:36:58;;;;;;;6.27;5.77;;;;;;;24.43;60.53;101092.09;4943878;28;97256;-48
2022/09/07 10:39:27;;;;;;;5.77;5.30;;;;;;;24.48;60.54;101091.13;4941638;28;100556;-48
2022/09/07 10:42:07;;;;;;;6.10;5.63;;;;;;;24.49;59.71;101084.16;4929840;28;97364;-51
2022/09/07 10:44:48;;;;;;;5.60;5.20;;;;;;;24.53;60.24;101084.47;4933631;28;96997;-48
2022/09/07 10:47:25;;;;;;;6.30;5.70;;;;;;;24.64;60.48;101081.16;4943175;28;97258;-47
2022/09/07 10:50:08;;;;;;;6.30;5.87;;;;;;;24.68;59.71;101084.31;4926376;28;97177;-47
2022/09/07 10:53:05;;;;;;;5.93;5.43;;;;;;;24.74;60.76;101079.16;4921689;28;100136;-49
2022/09/07 10:55:39;;;;;;;5.60;5.07;;;;;;;24.86;60.28;101076.59;4945691;28;97080;-48
2022/09/07 10:58:16;;;;;;;5.60;5.20;;;;;;;24.95;59.96;101084.34;4946017;28;97159;-47
2022/09/07 11:01:24;;;;;;;5.97;5.50;;;;;;;25.00;59.16;101077.72;4945467;28;100696;-48
2022/09/07 11:04:01;;;;;;;5.63;5.23;;;;;;;25.10;59.36;101081.34;4945393;28;102898;-48
2022/09/07 11:06:35;;;;;;;5.40;5.00;;;;;;;25.13;59.24;101072.47;4943371;28;97153;-48
2022/09/07 11:09:22;;;;;;;6.80;6.20;;;;;;;25.11;58.98;101072.31;4947841;28;96836;-47
2022/09/07 11:12:13;;;;;;;4.97;4.67;;;;;;;25.11;58.57;101072.31;4948635;28;100393;-51
2022/09/07 11:14:49;;;;;;;5.20;4.90;;;;;;;25.32;59.69;101071.81;4944774;28;97237;-48
2022/09/07 11:17:17;;;;;;;5.13;4.73;;;;;;;25.57;58.91;101063.19;4949368;28;98023;-48
2022/09/07 11:19:49;;;;;;;4.93;4.60;;;;;;;25.78;58.69;101060.59;4932688;28;97012;-48
2022/09/07 11:22:32;;;;;;;6.27;5.77;;;;;;;26.00;58.29;101053.81;4947276;28;98040;-48
2022/09/07 11:25:07;;;;;;;4.33;4.07;;;;;;;26.20;57.96;101055.34;4948290;28;102269;-47
2022/09/07 11:27:43;;;;;;;4.80;4.43;;;;;;;26.36;57.50;101059.38;4948884;28;97434;-47
2022/09/07 11:30:19;;;;;;;4.70;4.30;;;;;;;26.52;57.03;101054.88;4942339;28;97534;-48
2022/09/07 11:33:00;;;;;;;6.07;4.90;;;;;;;26.57;56.71;101065.16;4944146;28;98237;-47
2022/09/07 11:35:58;;;;;;;4.77;4.33;;;;;;;26.65;56.43;101062.91;4945430;28;97252;-48
2022/09/07 11:38:28;;;;;;;4.50;4.07;;;;;;;26.68;56.77;101047.59;4942024;28;97315;-47
2022/09/07 11:41:17;;;;;;;4.73;4.43;;;;;;;26.77;56.61;101051.78;4940714;28;97179;-48
2022/09/07 11:43:46;;;;;;;4.67;4.27;;;;;;;26.86;56.66;101053.84;4932458;28;103344;-47